Time;durP1;ratioP1;P1;durP2;ratioP2;P2;SDS_P1;SDS_P2;PMS_P1;PMS_P2;Temp;Humidity;BMP_temperature;BMP_pressure;BME280_temperature;BME280_humidity;BME280_pressure;Samples;Min_cycle;Max_cycle;Signal;HPM_P1;HPM_P2
2022/11/04 06:03:47;;;;;;;4.68;1.50;;;8.50;99.90;;;;;;4945080;29;20047;-74
2022/11/04 06:06:13;;;;;;;3.33;0.98;;;8.60;99.90;;;;;;4945131;29;20027;-73
2022/11/04 06:08:39;;;;;;;2.22;0.80;;;8.60;99.90;;;;;;4946770;29;20039;-73
2022/11/04 06:11:04;;;;;;;3.13;0.70;;;8.70;99.90;;;;;;4932262;29;20102;-72
2022/11/04 06:13:30;;;;;;;2.25;0.70;;;8.70;99.90;;;;;;4926923;29;20350;-73
2022/11/04 06:15:56;;;;;;;2.60;0.70;;;8.80;99.90;;;;;;4927653;29;20410;-73
2022/11/04 06:18:22;;;;;;;3.17;1.63;;;8.80;99.90;;;;;;4931241;29;20050;-74
2022/11/04 06:20:47;;;;;;;5.90;3.08;;;8.80;99.90;;;;;;4946484;29;20039;-74
2022/11/04 06:23:13;;;;;;;10.35;4.63;;;8.70;99.90;;;;;;4946056;29;20070;-73
2022/11/04 06:25:39;;;;;;;6.47;2.80;;;8.70;99.90;;;;;;4945610;29;20324;-73
2022/11/04 06:28:04;;;;;;;7.72;2.30;;;8.70;99.90;;;;;;4945923;29;20035;-73
2022/11/04 06:30:30;;;;;;;3.90;1.83;;;8.80;99.90;;;;;;4945260;29;20190;-73
2022/11/04 06:32:56;;;;;;;5.70;1.50;;;8.90;99.90;;;;;;4945925;29;20039;-73
2022/11/04 06:35:21;;;;;;;2.75;1.45;;;8.90;99.90;;;;;;4944339;29;20027;-73
2022/11/04 06:37:47;;;;;;;3.70;1.38;;;8.80;99.90;;;;;;4946166;29;20032;-73
2022/11/04 06:40:13;;;;;;;4.53;1.88;;;8.80;99.90;;;;;;4945430;29;20046;-73
2022/11/04 06:42:41;;;;;;;4.50;1.98;;;8.70;99.90;;;;;;4945820;29;20038;-73
2022/11/04 06:45:08;;;;;;;3.60;1.50;;;8.60;99.90;;;;;;4945691;29;20139;-73
2022/11/04 06:47:34;;;;;;;4.45;1.50;;;8.60;99.90;;;;;;4944235;29;20032;-72
2022/11/04 06:50:00;;;;;;;12.65;7.88;;;8.70;99.90;;;;;;4945833;29;20087;-72
2022/11/04 06:52:26;;;;;;;8.15;4.05;;;8.60;99.90;;;;;;4945436;29;20067;-72
2022/11/04 06:54:52;;;;;;;5.50;2.33;;;8.60;99.90;;;;;;4946619;29;20105;-72
2022/11/04 06:57:17;;;;;;;4.72;1.20;;;8.70;99.90;;;;;;4945207;29;20198;-73
2022/11/04 06:59:43;;;;;;;4.40;1.33;;;8.80;99.90;;;;;;4945428;29;20059;-73
2022/11/04 07:02:10;;;;;;;2.95;1.17;;;8.90;99.90;;;;;;4945115;29;20100;-72
2022/11/04 07:04:36;;;;;;;3.83;0.80;;;8.90;99.90;;;;;;4945094;29;20032;-72
2022/11/04 07:07:02;;;;;;;2.30;0.73;;;9.00;99.90;;;;;;4944947;29;20052;-73
2022/11/04 07:09:27;;;;;;;1.98;0.68;;;9.00;99.90;;;;;;4941364;29;20393;-73
2022/11/04 07:11:53;;;;;;;4.82;0.80;;;9.10;99.90;;;;;;4926529;29;20044;-72
2022/11/04 07:14:19;;;;;;;2.78;1.00;;;9.10;99.90;;;;;;4926043;29;20036;-73
2022/11/04 07:16:48;;;;;;;1.58;0.70;;;9.20;99.90;;;;;;4926320;29;20077;-72
2022/11/04 07:19:13;;;;;;;2.70;0.90;;;9.20;99.90;;;;;;4926277;29;20040;-72
2022/11/04 07:21:39;;;;;;;4.38;1.55;;;9.30;99.90;;;;;;4925498;29;20092;-72
2022/11/04 07:24:06;;;;;;;4.53;1.15;;;9.30;99.90;;;;;;4926030;29;20051;-72
2022/11/04 07:26:31;;;;;;;3.17;1.20;;;9.30;99.90;;;;;;4925446;29;20225;-73
2022/11/04 07:28:59;;;;;;;2.85;1.23;;;9.30;99.90;;;;;;4935214;29;20036;-72
2022/11/04 07:31:25;;;;;;;4.20;1.50;;;9.30;99.90;;;;;;4944803;29;20028;-72
2022/11/04 07:33:52;;;;;;;3.70;1.58;;;9.40;99.90;;;;;;4945329;29;20032;-73
2022/11/04 07:36:18;;;;;;;3.42;1.23;;;9.50;99.90;;;;;;4944432;29;20032;-72
2022/11/04 07:38:45;;;;;;;2.58;1.20;;;9.50;99.90;;;;;;4947435;29;20026;-72
2022/11/04 07:41:11;;;;;;;4.57;1.23;;;9.60;99.90;;;;;;4945652;29;20028;-73
2022/11/04 07:43:37;;;;;;;3.58;1.15;;;9.60;99.90;;;;;;4944471;29;20104;-73
2022/11/04 07:46:13;;;;;;;3.50;1.20;;;9.60;99.90;;;;;;4944763;29;20032;-72
2022/11/04 07:48:39;;;;;;;4.85;2.00;;;9.70;99.90;;;;;;4943595;29;20348;-73
2022/11/04 07:51:07;;;;;;;3.80;1.00;;;9.80;99.90;;;;;;4944788;29;20095;-73
2022/11/04 07:53:33;;;;;;;4.15;1.70;;;9.80;99.90;;;;;;4944429;29;20172;-75
2022/11/04 07:56:06;;;;;;;4.22;2.22;;;10.00;99.90;;;;;;4944968;29;20309;-72
2022/11/04 07:58:32;;;;;;;4.18;2.03;;;10.00;99.90;;;;;;4944314;29;20046;-71
2022/11/04 08:00:59;;;;;;;3.95;1.25;;;10.10;99.90;;;;;;4944199;29;20023;-75
2022/11/04 08:03:26;;;;;;;5.35;1.75;;;10.10;99.90;;;;;;4943899;29;20079;-71
2022/11/04 08:05:56;;;;;;;4.80;1.50;;;10.20;99.90;;;;;;4944888;29;20091;-72
2022/11/04 08:08:22;;;;;;;4.07;1.30;;;10.30;99.90;;;;;;4944477;29;20131;-74
2022/11/04 08:10:57;;;;;;;5.82;1.50;;;10.50;99.90;;;;;;4930770;29;20044;-72
2022/11/04 08:13:26;;;;;;;3.45;1.33;;;10.60;99.90;;;;;;4908547;29;20028;-72
2022/11/04 08:15:52;;;;;;;4.40;1.60;;;10.70;99.90;;;;;;4925417;29;20020;-74
2022/11/04 08:18:18;;;;;;;5.57;1.40;;;10.80;99.90;;;;;;4926110;29;20218;-74
2022/11/04 08:20:51;;;;;;;4.85;1.10;;;10.90;99.90;;;;;;4946697;29;20043;-74
2022/11/04 08:23:17;;;;;;;4.70;1.33;;;11.00;99.90;;;;;;4946565;29;20162;-73
2022/11/04 08:25:43;;;;;;;3.38;1.10;;;11.10;99.90;;;;;;4962865;29;20039;-74
2022/11/04 08:28:16;;;;;;;6.03;1.35;;;11.20;99.90;;;;;;4963864;29;20034;-72
2022/11/04 08:31:04;;;;;;;3.30;1.40;;;11.20;99.90;;;;;;4963086;29;20067;-73
2022/11/04 08:33:31;;;;;;;3.05;1.40;;;11.10;99.90;;;;;;4963279;29;20057;-75
2022/11/04 08:36:08;;;;;;;3.88;1.33;;;11.20;99.90;;;;;;4956087;29;20044;-72
2022/11/04 08:38:34;;;;;;;5.20;1.20;;;11.30;99.90;;;;;;4934508;29;20249;-74
2022/11/04 08:41:02;;;;;;;2.70;1.10;;;11.30;99.90;;;;;;4943117;29;20377;-73
2022/11/04 08:43:28;;;;;;;5.72;1.60;;;11.40;99.90;;;;;;4943210;29;20027;-73
2022/11/04 08:45:54;;;;;;;4.78;2.15;;;11.50;99.90;;;;;;4943552;29;20210;-72
2022/11/04 08:48:20;;;;;;;10.85;3.00;;;11.60;99.90;;;;;;4943751;29;20042;-73
2022/11/04 08:50:51;;;;;;;8.70;4.55;;;11.80;99.90;;;;;;4927899;29;20122;-73
2022/11/04 08:53:17;;;;;;;9.52;3.10;;;11.80;99.90;;;;;;4962251;28;20262;-72
2022/11/04 08:55:43;;;;;;;5.00;2.60;;;11.80;99.90;;;;;;4961738;29;20063;-73
2022/11/04 08:58:08;;;;;;;6.28;2.47;;;11.80;99.90;;;;;;4963840;28;20345;-72
2022/11/04 09:00:35;;;;;;;5.35;2.83;;;11.80;99.90;;;;;;4965309;28;20061;-72
2022/11/04 09:03:01;;;;;;;5.53;1.60;;;12.00;99.90;;;;;;4965610;28;20051;-72
2022/11/04 09:05:27;;;;;;;5.88;2.03;;;12.10;99.90;;;;;;4965310;28;20042;-73
2022/11/04 09:07:54;;;;;;;3.03;1.38;;;12.10;99.90;;;;;;4965692;28;20039;-74
2022/11/04 09:10:20;;;;;;;3.10;1.20;;;12.10;99.90;;;;;;4955511;28;20047;-73
2022/11/04 09:12:46;;;;;;;7.93;1.40;;;11.90;99.90;;;;;;4946754;29;20032;-72
2022/11/04 09:15:12;;;;;;;4.40;1.42;;;12.00;99.90;;;;;;4946543;29;20023;-73
2022/11/04 09:17:38;;;;;;;5.10;1.50;;;12.00;99.90;;;;;;4945730;29;20029;-72
2022/11/04 09:20:04;;;;;;;4.10;1.50;;;12.10;99.90;;;;;;4946559;29;20270;-72
2022/11/04 09:22:30;;;;;;;5.63;1.65;;;12.20;99.90;;;;;;4964926;28;20086;-72
2022/11/04 09:24:59;;;;;;;5.40;2.33;;;12.20;99.90;;;;;;4965626;29;20087;-73
2022/11/04 09:27:25;;;;;;;7.63;2.65;;;12.20;99.90;;;;;;4965057;29;20268;-73
2022/11/04 09:29:50;;;;;;;6.72;2.65;;;12.10;99.90;;;;;;4964049;29;20050;-73
2022/11/04 09:32:19;;;;;;;5.60;2.65;;;12.20;99.90;;;;;;4965419;28;20023;-72
2022/11/04 09:34:46;;;;;;;;;;;12.30;99.90;;;;;;4965062;28;20023;-73
2022/11/04 09:37:12;;;;;;;7.23;1.90;;;12.30;99.90;;;;;;4965335;29;20159;-72
2022/11/04 09:39:48;;;;;;;5.40;2.15;;;12.40;99.90;;;;;;4959046;28;20055;-72
2022/11/04 09:42:34;;;;;;;16.00;9.27;;;12.40;99.90;;;;;;4958541;29;20039;-73
2022/11/04 09:45:09;;;;;;;17.10;10.63;;;12.60;99.90;;;;;;4953208;28;20032;-71
2022/11/04 09:47:37;;;;;;;27.77;19.50;;;12.70;99.90;;;;;;4945528;29;20032;-71
2022/11/04 09:50:09;;;;;;;8.15;4.70;;;12.80;99.90;;;;;;4945528;29;20051;-71
2022/11/04 09:52:54;;;;;;;7.00;2.47;;;12.90;99.90;;;;;;4945371;29;20031;-72
2022/11/04 09:55:48;;;;;;;5.22;2.08;;;13.10;99.90;;;;;;4959954;29;20019;-73
2022/11/04 09:58:14;;;;;;;4.45;2.00;;;13.20;99.90;;;;;;4944821;29;20099;-74
2022/11/04 10:00:48;;;;;;;6.75;1.90;;;13.40;99.90;;;;;;4953730;29;20082;-72
2022/11/04 10:03:36;;;;;;;3.83;1.50;;;13.60;99.90;;;;;;4964665;28;20047;-71
2022/11/04 10:06:30;;;;;;;5.65;1.63;;;13.80;99.90;;;;;;4965209;28;20027;-74
2022/11/04 10:09:20;;;;;;;5.63;1.90;;;14.00;99.90;;;;;;4964631;28;20039;-71
2022/11/04 10:11:51;;;;;;;9.05;2.72;;;14.30;99.90;;;;;;4945518;29;20511;-72
2022/11/04 10:14:52;;;;;;;5.55;1.92;;;14.30;99.90;;;;;;4965049;28;20054;-76
2022/11/04 10:17:31;;;;;;;3.90;1.45;;;14.40;99.90;;;;;;4965122;28;20266;-71
2022/11/04 10:20:18;;;;;;;5.53;2.55;;;14.30;99.90;;;;;;4965085;29;20047;-72
2022/11/04 10:23:00;;;;;;;8.60;3.17;;;14.50;99.90;;;;;;4944713;29;20035;-73
2022/11/04 10:25:47;;;;;;;6.32;1.30;;;14.60;99.90;;;;;;4944787;29;20094;-75
2022/11/04 10:28:18;;;;;;;6.15;1.00;;;14.60;99.90;;;;;;4945055;29;20036;-75
2022/11/04 10:30:47;;;;;;;5.13;2.17;;;14.40;99.90;;;;;;4944849;29;20054;-76
2022/11/04 10:33:16;;;;;;;4.25;1.38;;;14.50;99.90;;;;;;4943628;29;20337;-72
2022/11/04 10:35:51;;;;;;;4.72;1.40;;;14.80;99.90;;;;;;4944558;29;20039;-72
2022/11/04 10:38:28;;;;;;;4.05;1.10;;;14.80;99.90;;;;;;4943686;29;20036;-72
2022/11/04 10:40:54;;;;;;;3.45;1.27;;;14.60;99.90;;;;;;4944823;29;20042;-72
2022/11/04 10:43:34;;;;;;;2.70;0.73;;;14.50;99.90;;;;;;4944732;29;20302;-72
2022/11/04 10:46:14;;;;;;;3.38;0.63;;;14.50;99.90;;;;;;4943516;29;20183;-71
2022/11/04 10:49:10;;;;;;;3.67;1.10;;;14.60;99.90;;;;;;4944322;29;20187;-71
2022/11/04 10:51:35;;;;;;;3.88;0.73;;;15.00;99.90;;;;;;4944307;29;20043;-72
2022/11/04 10:54:04;;;;;;;2.22;0.75;;;15.30;99.90;;;;;;4944796;29;20332;-72
2022/11/04 10:56:41;;;;;;;3.28;0.65;;;15.90;99.10;;;;;;4943948;29;20028;-72
2022/11/04 10:59:49;;;;;;;2.90;0.95;;;15.90;98.70;;;;;;4944724;29;20042;-73
2022/11/04 11:02:15;;;;;;;3.33;1.30;;;16.10;98.20;;;;;;4938924;29;20257;-70
2022/11/04 11:04:43;;;;;;;3.38;0.80;;;16.30;97.50;;;;;;4944112;29;20031;-71
2022/11/04 11:07:11;;;;;;;6.05;2.50;;;16.30;96.40;;;;;;4944303;29;20039;-71
2022/11/04 11:09:40;;;;;;;3.35;1.00;;;16.20;96.30;;;;;;4948294;29;20051;-72
2022/11/04 11:12:05;;;;;;;;;;;15.80;96.10;;;;;;4964063;29;20030;-73
2022/11/04 11:14:41;;;;;;;3.63;0.70;;;15.70;96.80;;;;;;4978156;28;19922;-71
2022/11/04 11:17:19;;;;;;;2.83;0.40;;;15.50;97.10;;;;;;4963229;28;20046;-72
2022/11/04 11:19:49;;;;;;;3.28;0.80;;;15.00;97.30;;;;;;4962787;28;20106;-72
2022/11/04 11:22:38;;;;;;;5.47;0.80;;;14.70;97.90;;;;;;4963220;28;20310;-78
2022/11/04 11:25:25;;;;;;;2.90;0.65;;;14.40;97.90;;;;;;4958124;28;20098;-71
2022/11/04 11:27:56;;;;;;;3.97;0.82;;;14.30;98.40;;;;;;4963276;29;20079;-71
2022/11/04 11:30:28;;;;;;;3.78;0.77;;;14.20;99.00;;;;;;4961933;29;20049;-74
2022/11/04 11:33:06;;;;;;;4.68;1.30;;;14.10;98.60;;;;;;4963105;29;20059;-75
2022/11/04 11:35:58;;;;;;;3.72;0.80;;;14.20;98.90;;;;;;4963039;28;20098;-73
2022/11/04 11:38:26;;;;;;;2.88;0.50;;;14.20;98.30;;;;;;4963211;29;20039;-70
2022/11/04 11:41:03;;;;;;;3.58;0.80;;;14.30;98.70;;;;;;4962787;28;20039;-71
2022/11/04 11:43:32;;;;;;;5.55;0.95;;;14.40;98.60;;;;;;4962671;28;20268;-72
2022/11/04 11:45:59;;;;;;;2.63;0.47;;;14.30;98.10;;;;;;4944087;29;20048;-72
2022/11/04 11:48:37;;;;;;;3.63;0.55;;;14.20;98.30;;;;;;4945496;29;20309;-73
2022/11/04 11:51:03;;;;;;;3.27;0.50;;;14.20;98.10;;;;;;4962987;29;20119;-74
2022/11/04 11:53:32;;;;;;;3.58;0.68;;;14.30;98.50;;;;;;4962248;28;20066;-74
2022/11/04 11:56:17;;;;;;;3.80;0.47;;;14.40;98.40;;;;;;4962692;28;20051;-75
2022/11/04 11:58:54;;;;;;;3.22;0.75;;;14.20;98.40;;;;;;4962536;29;20031;-74
2022/11/04 12:01:25;;;;;;;;;;;14.50;98.80;;;;;;4945937;29;20122;-78
2022/11/04 12:03:51;;;;;;;4.10;0.88;;;14.70;99.50;;;;;;4955962;29;19981;-75
2022/11/04 12:06:50;;;;;;;4.07;0.70;;;15.00;99.30;;;;;;4945308;28;20039;-73
2022/11/04 12:09:31;;;;;;;1.98;0.50;;;15.30;98.50;;;;;;4958685;28;20044;-73
2022/11/04 12:12:02;;;;;;;3.45;0.60;;;15.40;97.50;;;;;;4954910;29;20039;-73
2022/11/04 12:14:42;;;;;;;4.97;1.20;;;15.70;96.90;;;;;;4962290;28;20058;-73
2022/11/04 12:17:35;;;;;;;4.78;0.73;;;15.70;97.30;;;;;;4962507;29;20045;-73
2022/11/04 12:20:25;;;;;;;2.00;0.60;;;15.60;96.50;;;;;;4954714;29;20293;-74
2022/11/04 12:23:08;;;;;;;3.38;0.82;;;15.60;96.30;;;;;;4942833;29;20032;-74
2022/11/04 12:25:59;;;;;;;2.70;0.52;;;15.60;96.50;;;;;;4943282;29;20103;-74
2022/11/04 12:28:53;;;;;;;3.75;0.60;;;15.70;96.90;;;;;;4943339;29;20032;-73
2022/11/04 12:31:37;;;;;;;2.90;0.57;;;15.40;96.30;;;;;;4943808;29;20229;-73
2022/11/04 12:34:08;;;;;;;3.90;0.70;;;15.50;96.30;;;;;;4947353;29;20297;-73
2022/11/04 12:36:52;;;;;;;4.40;0.63;;;15.40;96.10;;;;;;4955913;29;20044;-74
2022/11/04 12:39:23;;;;;;;3.53;0.70;;;15.50;97.70;;;;;;4956579;29;20106;-73
2022/11/04 12:42:14;;;;;;;5.65;0.82;;;15.40;97.10;;;;;;4959109;28;20027;-73
2022/11/04 12:44:51;;;;;;;4.63;0.68;;;15.40;96.30;;;;;;4957674;29;20035;-73
2022/11/04 12:47:17;;;;;;;5.35;1.38;;;15.40;96.70;;;;;;4955152;28;20031;-73
2022/11/04 12:49:56;;;;;;;2.85;0.63;;;15.40;96.10;;;;;;4946528;29;20051;-72
2022/11/04 12:52:27;;;;;;;3.60;1.30;;;15.30;95.90;;;;;;4946664;29;20044;-72
2022/11/04 12:54:56;;;;;;;3.63;0.88;;;15.40;95.70;;;;;;4957197;29;20141;-70
2022/11/04 12:57:35;;;;;;;4.68;0.77;;;15.50;97.10;;;;;;4965910;29;20249;-70
2022/11/04 13:00:09;;;;;;;3.70;0.80;;;15.80;95.70;;;;;;4964638;29;20042;-71
2022/11/04 13:02:44;;;;;;;4.00;1.08;;;15.70;95.80;;;;;;4943872;28;20051;-71
2022/11/04 13:05:29;;;;;;;3.10;0.50;;;15.70;95.70;;;;;;4946397;29;20036;-70
2022/11/04 13:08:04;;;;;;;3.17;0.50;;;15.70;94.90;;;;;;4933057;29;20062;-69
2022/11/04 13:10:51;;;;;;;4.85;0.88;;;15.70;94.90;;;;;;4939735;29;20039;-70
2022/11/04 13:13:24;;;;;;;4.10;1.37;;;15.80;95.00;;;;;;4928206;29;20061;-71
2022/11/04 13:15:59;;;;;;;4.07;0.60;;;15.90;95.00;;;;;;4928406;29;20314;-72
2022/11/04 13:18:29;;;;;;;4.63;0.70;;;15.90;95.20;;;;;;4928223;29;20096;-72
2022/11/04 13:21:16;;;;;;;2.85;0.60;;;15.90;95.40;;;;;;4927740;29;20044;-70
2022/11/04 13:23:53;;;;;;;4.65;0.45;;;16.00;95.00;;;;;;4927862;29;20203;-71
2022/11/04 13:26:19;;;;;;;6.00;0.73;;;16.00;94.40;;;;;;4943064;29;20054;-73
2022/11/04 13:28:58;;;;;;;6.07;0.70;;;16.10;94.90;;;;;;4927755;29;20032;-74
2022/11/04 13:31:43;;;;;;;4.50;0.95;;;16.10;94.40;;;;;;4928140;29;20048;-72
2022/11/04 13:34:23;;;;;;;2.33;0.70;;;15.80;95.10;;;;;;4928030;29;20091;-71
2022/11/04 13:37:07;;;;;;;4.20;0.80;;;15.80;95.00;;;;;;4927778;29;20040;-70
2022/11/04 13:39:42;;;;;;;5.30;0.93;;;15.70;95.20;;;;;;4927516;29;20051;-73
2022/11/04 13:42:24;;;;;;;3.55;1.27;;;15.50;96.20;;;;;;4928280;29;20042;-72
2022/11/04 13:44:55;;;;;;;7.45;0.88;;;15.30;96.50;;;;;;4927663;29;20062;-72
2022/11/04 13:47:32;;;;;;;4.07;0.80;;;15.10;97.20;;;;;;4947089;29;20039;-73
2022/11/04 13:49:58;;;;;;;3.10;1.23;;;15.00;98.60;;;;;;4932780;29;20047;-70
2022/11/04 13:52:29;;;;;;;4.28;0.90;;;14.80;98.00;;;;;;4927931;29;20088;-70
2022/11/04 13:55:02;;;;;;;3.00;0.70;;;14.50;97.80;;;;;;4927252;29;20102;-73
2022/11/04 13:57:31;;;;;;;3.67;0.70;;;14.20;98.90;;;;;;4927336;29;20344;-70
2022/11/04 14:00:06;;;;;;;6.00;0.80;;;14.00;99.90;;;;;;4927735;29;20314;-71
2022/11/04 14:02:52;;;;;;;2.75;0.80;;;13.80;99.60;;;;;;4927320;29;20187;-71
2022/11/04 14:05:27;;;;;;;4.50;1.10;;;13.60;99.90;;;;;;4927695;29;20036;-70
2022/11/04 14:08:02;;;;;;;1.52;0.30;;;13.40;99.90;;;;;;4927448;29;20265;-70
2022/11/04 14:10:47;;;;;;;2.78;0.63;;;12.60;99.90;;;;;;4942150;29;20043;-71
2022/11/04 14:13:36;;;;;;;3.65;0.60;;;12.00;99.90;;;;;;4927806;29;20036;-72
2022/11/04 14:16:10;;;;;;;4.28;0.50;;;11.70;99.90;;;;;;4927323;29;20040;-71
2022/11/04 14:18:42;;;;;;;2.25;0.57;;;11.40;99.90;;;;;;4927117;29;20036;-71
2022/11/04 14:21:12;;;;;;;2.67;0.68;;;11.20;99.90;;;;;;4927166;29;20238;-71
2022/11/04 14:23:39;;;;;;;2.58;0.73;;;10.90;99.90;;;;;;4926961;29;20042;-71
2022/11/04 14:26:17;;;;;;;5.45;0.90;;;10.60;99.90;;;;;;4910712;29;20070;-71
2022/11/04 14:28:47;;;;;;;4.25;0.80;;;10.50;99.90;;;;;;4926869;29;20031;-71
2022/11/04 14:31:32;;;;;;;3.15;0.95;;;10.40;99.90;;;;;;4926908;29;20135;-71
2022/11/04 14:33:58;;;;;;;3.85;0.82;;;10.30;99.90;;;;;;4926748;29;20028;-71
2022/11/04 14:36:26;;;;;;;4.95;1.20;;;10.40;99.90;;;;;;4926946;29;20368;-72
2022/11/04 14:39:10;;;;;;;1.80;0.52;;;10.30;99.90;;;;;;4940286;29;20233;-72
2022/11/04 14:41:38;;;;;;;3.08;0.60;;;10.20;99.90;;;;;;4945716;29;20066;-74
2022/11/04 14:44:22;;;;;;;2.25;0.70;;;10.10;99.90;;;;;;4945900;29;20303;-72
2022/11/04 14:46:52;;;;;;;2.03;0.68;;;10.10;99.90;;;;;;4945166;29;20031;-71
2022/11/04 14:49:31;;;;;;;6.82;2.20;;;10.20;99.90;;;;;;4936850;29;20032;-72
2022/11/04 14:51:57;;;;;;;12.10;5.93;;;10.40;99.90;;;;;;4925990;29;20110;-72
2022/11/04 14:54:26;;;;;;;18.40;10.55;;;10.60;99.90;;;;;;4926262;29;20032;-71
2022/11/04 14:56:52;;;;;;;7.53;2.97;;;10.80;99.90;;;;;;4925657;29;20032;-71
2022/11/04 14:59:21;;;;;;;10.35;4.50;;;10.90;99.90;;;;;;4926304;29;20036;-72
2022/11/04 15:01:50;;;;;;;13.25;8.35;;;10.90;99.90;;;;;;4925975;29;20052;-71
2022/11/04 15:04:20;;;;;;;11.07;4.65;;;10.90;99.90;;;;;;4926816;29;20044;-71
2022/11/04 15:06:56;;;;;;;5.03;1.50;;;11.00;99.90;;;;;;4925795;29;20332;-71
2022/11/04 15:09:30;;;;;;;4.75;1.45;;;11.20;99.90;;;;;;4926365;29;20332;-71
2022/11/04 15:14:52;;;;;;;5.90;1.00;;;11.10;99.90;;;;;;4925956;29;20040;-72
2022/11/04 15:17:21;;;;;;;4.00;1.25;;;10.90;99.90;;;;;;4926427;29;20087;-72
2022/11/04 15:19:52;;;;;;;4.55;1.27;;;10.90;99.90;;;;;;4925787;29;20044;-71
2022/11/04 15:22:19;;;;;;;4.85;1.05;;;10.90;99.90;;;;;;4926219;29;20095;-72
2022/11/04 15:24:45;;;;;;;2.83;0.98;;;10.80;99.90;;;;;;4925767;29;20309;-71
2022/11/04 15:27:22;;;;;;;3.10;0.98;;;10.80;99.90;;;;;;4926275;29;20028;-72
2022/11/04 15:29:59;;;;;;;3.85;0.90;;;10.80;99.90;;;;;;4925726;29;20044;-72
2022/11/04 15:32:25;;;;;;;4.38;1.15;;;10.80;99.90;;;;;;4941075;29;20060;-72
2022/11/04 15:34:53;;;;;;;3.90;1.10;;;10.80;99.90;;;;;;4940347;29;20191;-72
2022/11/04 15:37:21;;;;;;;7.60;4.40;;;10.80;99.90;;;;;;4910740;29;20091;-72
2022/11/04 15:39:49;;;;;;;9.27;3.65;;;10.80;99.90;;;;;;4944565;29;20111;-71
2022/11/04 15:45:25;;;;;;;2.67;0.95;;;10.80;99.90;;;;;;4944371;29;20108;-72
2022/11/04 15:48:43;;;;;;;3.03;1.20;;;10.80;99.90;;;;;;4927457;29;20078;-72
2022/11/04 15:51:08;;;;;;;;;;;10.80;99.90;;;;;;4904526;29;20111;-72
2022/11/04 15:53:46;;;;;;;4.28;1.17;;;10.70;99.90;;;;;;4925658;29;20192;-71
2022/11/04 15:56:16;;;;;;;;;;;10.50;99.90;;;;;;4926188;29;20036;-72
2022/11/04 15:58:44;;;;;;;5.72;2.70;;;10.50;99.90;;;;;;4925458;29;19907;-71
2022/11/04 16:01:13;;;;;;;3.57;1.13;;;10.40;99.90;;;;;;4925733;29;20095;-72
2022/11/04 16:03:40;;;;;;;3.88;1.33;;;10.40;99.90;;;;;;4925328;29;20040;-72
2022/11/04 16:06:08;;;;;;;2.47;0.70;;;10.40;99.90;;;;;;4925154;29;20364;-72
2022/11/04 16:08:34;;;;;;;4.15;1.20;;;10.30;99.90;;;;;;4925493;29;20043;-71
2022/11/04 16:11:12;;;;;;;3.83;1.25;;;10.20;99.90;;;;;;4924796;29;20107;-74
2022/11/04 16:13:38;;;;;;;3.63;1.15;;;10.20;99.90;;;;;;4925701;29;20048;-72
2022/11/04 16:16:21;;;;;;;3.05;1.15;;;10.20;99.90;;;;;;4925322;29;20096;-72
2022/11/04 16:18:51;;;;;;;5.53;1.80;;;10.10;99.90;;;;;;4924751;29;20039;-71
2022/11/04 16:21:34;;;;;;;3.42;1.45;;;10.10;99.90;;;;;;4925198;29;20040;-72
2022/11/04 16:24:02;;;;;;;6.63;2.10;;;10.10;99.90;;;;;;4924810;29;20314;-71
2022/11/04 16:26:38;;;;;;;6.13;2.83;;;10.10;99.90;;;;;;4925739;29;20043;-71
2022/11/04 16:29:08;;;;;;;7.45;4.20;;;10.10;99.90;;;;;;4908249;29;20356;-71
2022/11/04 16:31:35;;;;;;;6.03;3.10;;;10.00;99.90;;;;;;4925095;29;20040;-73
2022/11/04 16:34:02;;;;;;;6.03;2.60;;;10.00;99.90;;;;;;4924716;29;20087;-71
2022/11/04 16:36:28;;;;;;;4.47;2.15;;;10.00;99.90;;;;;;4925129;29;20063;-71
2022/11/04 16:39:01;;;;;;;4.97;2.65;;;10.00;99.90;;;;;;4938284;29;20035;-71
2022/11/04 16:41:31;;;;;;;3.35;1.70;;;10.00;99.90;;;;;;4944350;29;20032;-71
2022/11/04 16:43:58;;;;;;;5.28;1.60;;;10.00;99.90;;;;;;4943780;29;20344;-73
2022/11/04 16:46:24;;;;;;;4.28;2.22;;;10.00;99.90;;;;;;4944306;29;20044;-72
2022/11/04 16:48:49;;;;;;;4.25;2.40;;;10.00;99.90;;;;;;4938803;29;20032;-72
2022/11/04 16:51:20;;;;;;;8.00;3.75;;;10.00;99.90;;;;;;4924979;29;20107;-71
2022/11/04 16:53:48;;;;;;;10.15;4.45;;;10.10;99.90;;;;;;4924461;29;20314;-72
2022/11/04 16:56:18;;;;;;;22.67;12.35;;;10.10;99.90;;;;;;4938248;29;20034;-72
2022/11/04 16:58:44;;;;;;;7.93;4.30;;;10.20;99.90;;;;;;4942599;29;20063;-72
2022/11/04 17:01:12;;;;;;;12.10;5.63;;;10.20;99.90;;;;;;4974213;28;20211;-71
2022/11/04 17:03:38;;;;;;;29.15;12.88;;;10.20;99.90;;;;;;4943314;29;20523;-71
2022/11/04 17:06:04;;;;;;;13.30;5.95;;;10.20;99.90;;;;;;4942444;29;20040;-71
2022/11/04 17:08:32;;;;;;;8.27;3.67;;;10.10;99.90;;;;;;4942990;29;20032;-73
2022/11/04 17:10:58;;;;;;;16.38;7.30;;;10.10;99.90;;;;;;4942356;29;20031;-72
2022/11/04 17:13:23;;;;;;;7.57;3.55;;;10.10;99.90;;;;;;4942983;29;20040;-72
2022/11/04 17:15:49;;;;;;;5.57;2.70;;;10.10;99.90;;;;;;4942666;29;20335;-72
2022/11/04 17:18:17;;;;;;;10.30;5.22;;;10.10;99.90;;;;;;4943086;29;20094;-72
2022/11/04 17:20:46;;;;;;;10.77;5.82;;;10.00;99.90;;;;;;4946500;29;20031;-72
2022/11/04 17:23:13;;;;;;;8.02;3.95;;;10.00;99.90;;;;;;4946106;29;20095;-71
2022/11/04 17:25:39;;;;;;;8.20;3.20;;;10.00;99.90;;;;;;4946078;29;20107;-71
2022/11/04 17:28:05;;;;;;;6.57;2.38;;;9.90;99.90;;;;;;4945430;29;20032;-73
2022/11/04 17:30:31;;;;;;;3.88;1.85;;;10.00;99.90;;;;;;4946230;29;20040;-71
2022/11/04 17:32:57;;;;;;;4.05;2.13;;;10.00;99.90;;;;;;4945459;29;20288;-72
2022/11/04 17:35:23;;;;;;;3.70;1.20;;;10.00;99.90;;;;;;4929362;29;20051;-71
2022/11/04 17:37:55;;;;;;;4.07;1.60;;;10.00;99.90;;;;;;4945898;29;20075;-71
2022/11/04 17:40:22;;;;;;;10.18;7.30;;;9.90;99.90;;;;;;4946240;29;20059;-71
2022/11/04 17:45:32;;;;;;;7.22;3.40;;;9.90;99.90;;;;;;4945711;29;20051;-72
2022/11/04 17:48:02;;;;;;;8.45;3.47;;;9.90;99.90;;;;;;4945721;29;20035;-71
2022/11/04 17:50:28;;;;;;;15.98;6.13;;;9.80;99.90;;;;;;4927534;29;20063;-73
2022/11/04 17:52:54;;;;;;;16.73;7.20;;;9.80;99.90;;;;;;4926501;29;20066;-72
2022/11/04 17:55:20;;;;;;;12.95;7.40;;;9.80;99.90;;;;;;4930648;29;20020;-72
2022/11/04 17:57:46;;;;;;;8.38;4.05;;;9.80;99.90;;;;;;4945499;29;20091;-72
2022/11/04 18:00:13;;;;;;;5.95;3.20;;;9.70;99.90;;;;;;4945174;29;20345;-72
2022/11/04 18:02:39;;;;;;;4.70;2.10;;;9.70;99.90;;;;;;4945191;29;20266;-73
2022/11/04 18:05:06;;;;;;;4.82;2.20;;;9.70;99.90;;;;;;4945099;29;20042;-72
2022/11/04 18:07:32;;;;;;;4.32;2.20;;;9.70;99.90;;;;;;4928761;29;20035;-72
2022/11/04 18:10:01;;;;;;;6.75;3.20;;;9.80;99.90;;;;;;4943691;29;20059;-73
2022/11/04 18:12:36;;;;;;;6.47;4.13;;;9.70;99.90;;;;;;4945474;29;20093;-72
2022/11/04 18:15:08;;;;;;;16.77;10.70;;;9.70;99.90;;;;;;4945184;29;20028;-72
2022/11/04 18:17:44;;;;;;;8.93;5.43;;;9.70;99.90;;;;;;4928487;29;20343;-72
2022/11/04 18:20:14;;;;;;;8.68;5.15;;;9.70;99.90;;;;;;4944635;29;20050;-71
2022/11/04 18:22:41;;;;;;;14.23;5.43;;;9.70;99.90;;;;;;4945130;29;20086;-71
2022/11/04 18:25:07;;;;;;;8.90;4.90;;;9.70;99.90;;;;;;4927996;29;20059;-72
2022/11/04 18:27:33;;;;;;;6.80;3.85;;;9.60;99.90;;;;;;4945000;29;20095;-73
2022/11/04 18:29:59;;;;;;;10.73;6.35;;;9.70;99.90;;;;;;4944498;29;20098;-72
2022/11/04 18:32:25;;;;;;;26.30;17.63;;;9.70;99.90;;;;;;4945266;29;20103;-71
2022/11/04 18:34:51;;;;;;;11.80;6.57;;;9.60;99.90;;;;;;4944922;29;20019;-72
2022/11/04 18:37:18;;;;;;;8.32;3.85;;;9.60;99.90;;;;;;4945250;29;20115;-72
2022/11/04 18:39:44;;;;;;;7.32;3.53;;;9.60;99.90;;;;;;4945174;29;20043;-73
2022/11/04 18:42:10;;;;;;;6.82;3.25;;;9.70;99.90;;;;;;4944676;29;20258;-71
2022/11/04 18:44:36;;;;;;;4.70;2.80;;;9.70;99.90;;;;;;4945185;29;20058;-72
2022/11/04 18:47:02;;;;;;;5.53;2.90;;;9.70;99.90;;;;;;4944469;29;20103;-72
2022/11/04 18:49:28;;;;;;;5.43;2.80;;;9.70;99.90;;;;;;4935492;29;20071;-72
2022/11/04 18:51:54;;;;;;;8.55;3.55;;;9.70;99.90;;;;;;4927032;29;20032;-72
2022/11/04 18:54:19;;;;;;;9.38;4.47;;;9.70;99.90;;;;;;4927487;29;20083;-72
2022/11/04 18:56:45;;;;;;;8.98;4.63;;;9.70;99.90;;;;;;4927183;29;20036;-72
2022/11/04 18:59:13;;;;;;;8.57;4.68;;;9.80;99.90;;;;;;4940635;29;20031;-72
2022/11/04 19:01:40;;;;;;;10.20;4.38;;;9.80;99.90;;;;;;4925715;29;20043;-72
2022/11/04 19:04:06;;;;;;;12.13;6.20;;;9.70;99.90;;;;;;4937182;29;20309;-72
2022/11/04 19:06:34;;;;;;;11.93;6.72;;;9.70;99.90;;;;;;4944630;29;20258;-72
2022/11/04 19:09:04;;;;;;;15.70;7.68;;;9.70;99.90;;;;;;4944199;29;20317;-73
2022/11/04 19:11:33;;;;;;;8.43;4.82;;;9.60;99.90;;;;;;4944382;29;20044;-71
2022/11/04 19:14:02;;;;;;;6.55;4.07;;;9.60;99.90;;;;;;4944206;29;20120;-72
2022/11/04 19:16:29;;;;;;;7.53;3.75;;;9.60;99.90;;;;;;4944383;29;20028;-72
2022/11/04 19:18:58;;;;;;;6.03;3.53;;;9.60;99.90;;;;;;4944196;29;20042;-72
2022/11/04 19:21:25;;;;;;;6.55;3.38;;;9.50;99.90;;;;;;4944472;29;20043;-72
2022/11/04 19:23:51;;;;;;;7.25;4.50;;;9.50;99.90;;;;;;4944040;29;20059;-72